SWA1517 KMCO-KMIA
Flight info
| Callsign | SWA1517 |
|---|---|
| Flight time | 0h 48m |
| Altitude | 23000 |
| Route | DDANY3 DDANY CSTAL3 |
| Aircraft | B737/M-SADE2E3GIJ4RWZ/LB1D1 |
Departure
| Time | 2026-04-25 23:33 |
|---|---|
| Airport | Orlando International Airport (KMCO) |
Arrival
| Time | 2026-04-26 00:22 |
|---|---|
| Airport | Miami International Airport (KMIA) |
| Time | Latitude | Longitude | Altitude | Speed | Heading |
|---|---|---|---|---|---|
| 2026-04-25 23:03 | 28.43592 | -81.30331 | 94 ft | 0 kts | 165° |
| 2026-04-25 23:21 | 28.43599 | -81.30333 | 93 ft | 2 kts | 164° |
| 2026-04-25 23:21 | 28.43617 | -81.30340 | 94 ft | 3 kts | 153° |
| 2026-04-25 23:21 | 28.43634 | -81.30352 | 94 ft | 3 kts | 132° |
| 2026-04-25 23:21 | 28.43643 | -81.30368 | 93 ft | 3 kts | 88° |
| 2026-04-25 23:22 | 28.43641 | -81.30379 | 93 ft | 1 kts | 52° |
| 2026-04-25 23:22 | 28.43639 | -81.30383 | 96 ft | 0 kts | 52° |
| 2026-04-25 23:26 | 28.43643 | -81.30376 | 93 ft | 3 kts | 52° |
| 2026-04-25 23:26 | 28.43665 | -81.30345 | 93 ft | 7 kts | 52° |
| 2026-04-25 23:26 | 28.43702 | -81.30291 | 94 ft | 10 kts | 51° |
| 2026-04-25 23:26 | 28.43747 | -81.30226 | 94 ft | 11 kts | 51° |
| 2026-04-25 23:27 | 28.43797 | -81.30154 | 95 ft | 12 kts | 52° |
| 2026-04-25 23:27 | 28.43827 | -81.30066 | 96 ft | 13 kts | 89° |
| 2026-04-25 23:27 | 28.43806 | -81.29971 | 96 ft | 13 kts | 118° |
| 2026-04-25 23:27 | 28.43736 | -81.29903 | 95 ft | 14 kts | 161° |
| 2026-04-25 23:28 | 28.43655 | -81.29889 | 95 ft | 12 kts | 178° |
| 2026-04-25 23:28 | 28.43600 | -81.29888 | 94 ft | 7 kts | 179° |
| 2026-04-25 23:28 | 28.43555 | -81.29866 | 94 ft | 8 kts | 121° |
| 2026-04-25 23:28 | 28.43549 | -81.29801 | 94 ft | 9 kts | 89° |
| 2026-04-25 23:29 | 28.43550 | -81.29739 | 94 ft | 5 kts | 90° |
| 2026-04-25 23:29 | 28.43550 | -81.29697 | 97 ft | 5 kts | 89° |
| 2026-04-25 23:29 | 28.43550 | -81.29657 | 95 ft | 5 kts | 89° |
| 2026-04-25 23:29 | 28.43550 | -81.29618 | 98 ft | 5 kts | 89° |
| 2026-04-25 23:30 | 28.43539 | -81.29588 | 96 ft | 3 kts | 173° |
| 2026-04-25 23:30 | 28.43531 | -81.29588 | 96 ft | 0 kts | 179° |
| 2026-04-25 23:32 | 28.43499 | -81.29587 | 96 ft | 23 kts | 179° |
| 2026-04-25 23:32 | 28.43092 | -81.29582 | 97 ft | 92 kts | 179° |
| 2026-04-25 23:33 | 28.42258 | -81.29568 | 102 ft | 144 kts | 178° |
| 2026-04-25 23:33 | 28.41248 | -81.29552 | 631 ft | 142 kts | 178° |
| 2026-04-25 23:33 | 28.40272 | -81.29509 | 1241 ft | 144 kts | 176° |
| 2026-04-25 23:33 | 28.39254 | -81.29439 | 1775 ft | 147 kts | 174° |
| 2026-04-25 23:34 | 28.38207 | -81.29275 | 2402 ft | 160 kts | 160° |
| 2026-04-25 23:34 | 28.37189 | -81.28509 | 2737 ft | 191 kts | 140° |
| 2026-04-25 23:34 | 28.36046 | -81.27552 | 3052 ft | 218 kts | 144° |
| 2026-04-25 23:34 | 28.34685 | -81.26559 | 3311 ft | 247 kts | 147° |
| 2026-04-25 23:35 | 28.33333 | -81.25291 | 4025 ft | 257 kts | 135° |
| 2026-04-25 23:35 | 28.32073 | -81.23805 | 4657 ft | 265 kts | 133° |
| 2026-04-25 23:35 | 28.31151 | -81.22009 | 5033 ft | 270 kts | 106° |
| 2026-04-25 23:35 | 28.30760 | -81.19887 | 5876 ft | 278 kts | 102° |
| 2026-04-25 23:36 | 28.30404 | -81.17719 | 6868 ft | 282 kts | 102° |
| 2026-04-25 23:36 | 28.30042 | -81.15536 | 7776 ft | 289 kts | 102° |
| 2026-04-25 23:36 | 28.29655 | -81.13269 | 8730 ft | 296 kts | 102° |
| 2026-04-25 23:36 | 28.29251 | -81.10956 | 9744 ft | 301 kts | 102° |
| 2026-04-25 23:37 | 28.28832 | -81.08596 | 10603 ft | 314 kts | 102° |
| 2026-04-25 23:37 | 28.28374 | -81.06052 | 10884 ft | 345 kts | 101° |
| 2026-04-25 23:37 | 28.27871 | -81.03282 | 11198 ft | 370 kts | 101° |
| 2026-04-25 23:37 | 28.27338 | -81.00378 | 11936 ft | 380 kts | 101° |
| 2026-04-25 23:38 | 28.26794 | -80.97422 | 12847 ft | 385 kts | 101° |
| 2026-04-25 23:38 | 28.26241 | -80.94432 | 13593 ft | 389 kts | 101° |
| 2026-04-25 23:38 | 28.25683 | -80.91418 | 13932 ft | 393 kts | 101° |
| 2026-04-25 23:38 | 28.25120 | -80.88372 | 14014 ft | 397 kts | 101° |
| 2026-04-25 23:39 | 28.24557 | -80.85334 | 14858 ft | 400 kts | 101° |
| 2026-04-25 23:39 | 28.23983 | -80.82238 | 15845 ft | 402 kts | 101° |
| 2026-04-25 23:39 | 28.23404 | -80.79123 | 16728 ft | 406 kts | 101° |
| 2026-04-25 23:39 | 28.22817 | -80.75965 | 17519 ft | 412 kts | 101° |
| 2026-04-25 23:40 | 28.22205 | -80.72765 | 18296 ft | 419 kts | 103° |
| 2026-04-25 23:40 | 28.21008 | -80.69743 | 19055 ft | 425 kts | 125° |
| 2026-04-25 23:40 | 28.18952 | -80.67340 | 19890 ft | 427 kts | 144° |
| 2026-04-25 23:40 | 28.16353 | -80.65730 | 20646 ft | 428 kts | 162° |
| 2026-04-25 23:41 | 28.13489 | -80.64793 | 21362 ft | 431 kts | 166° |
| 2026-04-25 23:41 | 28.10606 | -80.63959 | 21997 ft | 435 kts | 167° |
| 2026-04-25 23:41 | 28.07655 | -80.63132 | 22610 ft | 439 kts | 167° |
| 2026-04-25 23:41 | 28.04697 | -80.62295 | 22895 ft | 439 kts | 167° |
| 2026-04-25 23:42 | 28.01733 | -80.61437 | 22896 ft | 439 kts | 167° |
| 2026-04-25 23:42 | 27.98776 | -80.60566 | 22907 ft | 440 kts | 166° |
| 2026-04-25 23:42 | 27.95813 | -80.59684 | 22916 ft | 440 kts | 166° |
| 2026-04-25 23:42 | 27.92848 | -80.58796 | 22909 ft | 442 kts | 166° |
| 2026-04-25 23:43 | 27.89878 | -80.57904 | 22915 ft | 442 kts | 166° |
| 2026-04-25 23:43 | 27.86906 | -80.57013 | 22901 ft | 442 kts | 166° |
| 2026-04-25 23:43 | 27.83937 | -80.56123 | 22919 ft | 441 kts | 166° |
| 2026-04-25 23:43 | 27.80969 | -80.55234 | 22917 ft | 441 kts | 166° |
| 2026-04-25 23:44 | 27.78046 | -80.54361 | 22919 ft | 440 kts | 166° |
| 2026-04-25 23:44 | 27.75089 | -80.53477 | 22925 ft | 440 kts | 166° |
| 2026-04-25 23:44 | 27.72131 | -80.52594 | 22928 ft | 440 kts | 166° |
| 2026-04-25 23:44 | 27.69172 | -80.51710 | 22926 ft | 440 kts | 166° |
| 2026-04-25 23:45 | 27.66213 | -80.50828 | 22931 ft | 443 kts | 166° |
| 2026-04-25 23:45 | 27.63219 | -80.49814 | 22948 ft | 455 kts | 163° |
| 2026-04-25 23:45 | 27.60195 | -80.48635 | 22946 ft | 463 kts | 161° |
| 2026-04-25 23:45 | 27.57168 | -80.47395 | 22931 ft | 462 kts | 161° |
| 2026-04-25 23:46 | 27.54207 | -80.46171 | 22923 ft | 458 kts | 161° |
| 2026-04-25 23:46 | 27.51221 | -80.44951 | 22923 ft | 456 kts | 161° |
| 2026-04-25 23:46 | 27.48239 | -80.43749 | 22924 ft | 455 kts | 161° |
| 2026-04-25 23:46 | 27.45213 | -80.42544 | 22927 ft | 456 kts | 161° |
| 2026-04-25 23:47 | 27.42259 | -80.41375 | 22929 ft | 457 kts | 161° |
| 2026-04-25 23:47 | 27.39254 | -80.40189 | 22929 ft | 458 kts | 162° |
| 2026-04-25 23:47 | 27.36248 | -80.39003 | 22925 ft | 459 kts | 161° |
| 2026-04-25 23:47 | 27.33234 | -80.37813 | 22926 ft | 459 kts | 161° |
| 2026-04-25 23:48 | 27.30211 | -80.36620 | 22928 ft | 460 kts | 161° |
| 2026-04-25 23:48 | 27.27192 | -80.35430 | 22926 ft | 460 kts | 162° |
| 2026-04-25 23:48 | 27.24167 | -80.34238 | 22928 ft | 460 kts | 162° |
| 2026-04-25 23:48 | 27.21144 | -80.33048 | 22921 ft | 460 kts | 162° |
| 2026-04-25 23:49 | 27.18117 | -80.31863 | 22499 ft | 460 kts | 162° |
| 2026-04-25 23:49 | 27.15112 | -80.30695 | 22142 ft | 455 kts | 162° |
| 2026-04-25 23:49 | 27.12130 | -80.29539 | 21770 ft | 452 kts | 162° |
| 2026-04-25 23:49 | 27.09192 | -80.28403 | 21407 ft | 452 kts | 162° |
| 2026-04-25 23:50 | 27.06231 | -80.27253 | 21038 ft | 449 kts | 162° |
| 2026-04-25 23:50 | 27.03285 | -80.26111 | 20676 ft | 448 kts | 162° |
| 2026-04-25 23:50 | 27.00340 | -80.24970 | 20313 ft | 446 kts | 162° |
| 2026-04-25 23:50 | 26.97413 | -80.23837 | 19948 ft | 445 kts | 162° |
| 2026-04-25 23:51 | 26.94491 | -80.22706 | 19585 ft | 443 kts | 162° |
| 2026-04-25 23:51 | 26.91585 | -80.21581 | 19232 ft | 441 kts | 162° |
| 2026-04-25 23:51 | 26.88691 | -80.20461 | 18872 ft | 440 kts | 162° |
| 2026-04-25 23:51 | 26.85845 | -80.19362 | 18520 ft | 437 kts | 162° |
| 2026-04-25 23:52 | 26.82967 | -80.18279 | 18162 ft | 435 kts | 163° |
| 2026-04-25 23:52 | 26.80098 | -80.17222 | 17809 ft | 433 kts | 163° |
| 2026-04-25 23:52 | 26.77247 | -80.16174 | 17458 ft | 431 kts | 163° |
| 2026-04-25 23:52 | 26.74424 | -80.15132 | 17102 ft | 421 kts | 163° |
| 2026-04-25 23:53 | 26.71694 | -80.14120 | 16778 ft | 405 kts | 163° |
| 2026-04-25 23:53 | 26.69070 | -80.13196 | 16608 ft | 386 kts | 165° |
| 2026-04-25 23:53 | 26.66535 | -80.12393 | 16219 ft | 372 kts | 170° |
| 2026-04-25 23:53 | 26.64074 | -80.11840 | 15903 ft | 351 kts | 171° |
| 2026-04-25 23:54 | 26.61746 | -80.11305 | 15624 ft | 333 kts | 170° |
| 2026-04-25 23:54 | 26.59510 | -80.10758 | 15359 ft | 325 kts | 170° |
| 2026-04-25 23:54 | 26.57337 | -80.10223 | 15116 ft | 326 kts | 170° |
| 2026-04-25 23:54 | 26.55104 | -80.09669 | 14871 ft | 331 kts | 170° |
| 2026-04-25 23:55 | 26.52844 | -80.09107 | 14605 ft | 333 kts | 170° |
| 2026-04-25 23:55 | 26.50587 | -80.08544 | 14327 ft | 330 kts | 170° |
| 2026-04-25 23:55 | 26.48366 | -80.07988 | 14048 ft | 324 kts | 170° |
| 2026-04-25 23:55 | 26.46185 | -80.07442 | 13783 ft | 319 kts | 170° |
| 2026-04-25 23:56 | 26.44026 | -80.06957 | 13526 ft | 314 kts | 172° |
| 2026-04-25 23:56 | 26.41904 | -80.06514 | 13272 ft | 306 kts | 172° |
| 2026-04-25 23:56 | 26.39847 | -80.06086 | 13072 ft | 297 kts | 172° |
| 2026-04-25 23:56 | 26.37880 | -80.05614 | 13021 ft | 290 kts | 169° |
| 2026-04-25 23:57 | 26.35931 | -80.05071 | 13016 ft | 288 kts | 168° |
| 2026-04-25 23:57 | 26.33953 | -80.04517 | 12715 ft | 296 kts | 168° |
| 2026-04-25 23:57 | 26.31966 | -80.03963 | 12550 ft | 293 kts | 169° |
| 2026-04-25 23:57 | 26.30010 | -80.03421 | 12418 ft | 287 kts | 169° |
| 2026-04-25 23:58 | 26.28083 | -80.02893 | 12292 ft | 284 kts | 169° |
| 2026-04-25 23:58 | 26.26170 | -80.02379 | 12181 ft | 282 kts | 172° |
| 2026-04-25 23:58 | 26.24241 | -80.02387 | 12051 ft | 275 kts | 194° |
| 2026-04-25 23:58 | 26.22372 | -80.02813 | 11950 ft | 274 kts | 195° |
| 2026-04-25 23:59 | 26.20532 | -80.03253 | 11834 ft | 273 kts | 195° |
| 2026-04-25 23:59 | 26.18675 | -80.03693 | 11715 ft | 274 kts | 195° |
| 2026-04-25 23:59 | 26.16811 | -80.04130 | 11606 ft | 274 kts | 195° |
| 2026-04-25 23:59 | 26.14948 | -80.04563 | 11496 ft | 274 kts | 194° |
| 2026-04-26 00:00 | 26.13079 | -80.04994 | 11380 ft | 274 kts | 194° |
| 2026-04-26 00:00 | 26.11214 | -80.05421 | 11267 ft | 274 kts | 194° |
| 2026-04-26 00:00 | 26.09344 | -80.05849 | 11151 ft | 274 kts | 194° |
| 2026-04-26 00:00 | 26.07470 | -80.06277 | 11037 ft | 275 kts | 194° |
| 2026-04-26 00:01 | 26.05586 | -80.06733 | 10815 ft | 279 kts | 195° |
| 2026-04-26 00:01 | 26.03686 | -80.07229 | 10587 ft | 280 kts | 195° |
| 2026-04-26 00:01 | 26.01811 | -80.07722 | 10345 ft | 275 kts | 195° |
| 2026-04-26 00:01 | 25.99982 | -80.08201 | 10114 ft | 271 kts | 195° |
| 2026-04-26 00:02 | 25.98151 | -80.08679 | 9881 ft | 270 kts | 194° |
| 2026-04-26 00:02 | 25.96336 | -80.09152 | 9555 ft | 266 kts | 194° |
| 2026-04-26 00:02 | 25.94531 | -80.09620 | 8967 ft | 267 kts | 194° |
| 2026-04-26 00:02 | 25.92740 | -80.10158 | 8387 ft | 267 kts | 205° |
| 2026-04-26 00:03 | 25.91259 | -80.11362 | 7883 ft | 263 kts | 225° |
| 2026-04-26 00:03 | 25.90024 | -80.12844 | 7395 ft | 260 kts | 229° |
| 2026-04-26 00:03 | 25.88832 | -80.14351 | 6876 ft | 259 kts | 231° |
| 2026-04-26 00:03 | 25.88004 | -80.16095 | 6336 ft | 258 kts | 256° |
| 2026-04-26 00:04 | 25.87789 | -80.18057 | 5848 ft | 254 kts | 268° |
| 2026-04-26 00:04 | 25.87756 | -80.20017 | 5316 ft | 253 kts | 270° |
| 2026-04-26 00:04 | 25.87733 | -80.21923 | 5047 ft | 243 kts | 269° |
| 2026-04-26 00:04 | 25.87888 | -80.23715 | 4902 ft | 227 kts | 292° |
| 2026-04-26 00:05 | 25.88707 | -80.25101 | 4814 ft | 212 kts | 312° |
| 2026-04-26 00:05 | 25.89671 | -80.26296 | 4663 ft | 200 kts | 313° |
| 2026-04-26 00:05 | 25.90598 | -80.27439 | 4342 ft | 199 kts | 313° |
| 2026-04-26 00:05 | 25.91518 | -80.28577 | 4030 ft | 197 kts | 313° |
| 2026-04-26 00:06 | 25.92437 | -80.29710 | 3690 ft | 199 kts | 313° |
| 2026-04-26 00:06 | 25.93357 | -80.30848 | 3484 ft | 197 kts | 313° |
| 2026-04-26 00:06 | 25.94264 | -80.31976 | 3266 ft | 196 kts | 313° |
| 2026-04-26 00:06 | 25.95177 | -80.33109 | 3095 ft | 199 kts | 313° |
| 2026-04-26 00:07 | 25.96100 | -80.34257 | 3061 ft | 199 kts | 310° |
| 2026-04-26 00:07 | 25.96724 | -80.35587 | 3051 ft | 195 kts | 292° |
| 2026-04-26 00:07 | 25.97226 | -80.36981 | 3035 ft | 195 kts | 292° |
| 2026-04-26 00:07 | 25.97741 | -80.38392 | 3039 ft | 198 kts | 292° |
| 2026-04-26 00:08 | 25.98259 | -80.39805 | 3029 ft | 198 kts | 292° |
| 2026-04-26 00:08 | 25.98777 | -80.41215 | 3038 ft | 196 kts | 293° |
| 2026-04-26 00:08 | 25.99290 | -80.42608 | 3042 ft | 193 kts | 292° |
| 2026-04-26 00:08 | 25.99798 | -80.43992 | 3033 ft | 196 kts | 293° |
| 2026-04-26 00:09 | 26.00316 | -80.45411 | 3041 ft | 200 kts | 292° |
| 2026-04-26 00:09 | 26.00843 | -80.46851 | 3027 ft | 201 kts | 293° |
| 2026-04-26 00:09 | 26.01370 | -80.48283 | 3009 ft | 199 kts | 292° |
| 2026-04-26 00:09 | 26.01894 | -80.49706 | 3009 ft | 198 kts | 293° |
| 2026-04-26 00:10 | 26.02415 | -80.51119 | 3011 ft | 197 kts | 292° |
| 2026-04-26 00:10 | 26.02679 | -80.52600 | 3029 ft | 196 kts | 273° |
| 2026-04-26 00:10 | 26.02758 | -80.54094 | 3019 ft | 197 kts | 273° |
| 2026-04-26 00:10 | 26.02838 | -80.55620 | 3020 ft | 198 kts | 273° |
| 2026-04-26 00:11 | 26.02917 | -80.57152 | 3023 ft | 199 kts | 273° |
| 2026-04-26 00:11 | 26.02998 | -80.58693 | 3023 ft | 200 kts | 273° |
| 2026-04-26 00:11 | 26.03080 | -80.60240 | 3023 ft | 201 kts | 273° |
| 2026-04-26 00:11 | 26.03163 | -80.61792 | 3018 ft | 201 kts | 272° |
| 2026-04-26 00:12 | 26.02906 | -80.63292 | 3012 ft | 198 kts | 237° |
| 2026-04-26 00:12 | 26.01915 | -80.64278 | 3022 ft | 192 kts | 198° |
| 2026-04-26 00:12 | 26.00620 | -80.64431 | 3032 ft | 187 kts | 174° |
| 2026-04-26 00:12 | 25.99340 | -80.64214 | 2998 ft | 184 kts | 151° |
| 2026-04-26 00:13 | 25.98516 | -80.63283 | 3030 ft | 166 kts | 123° |
| 2026-04-26 00:13 | 25.97863 | -80.62270 | 3004 ft | 158 kts | 125° |
| 2026-04-26 00:13 | 25.97211 | -80.61302 | 3006 ft | 156 kts | 126° |
| 2026-04-26 00:13 | 25.96544 | -80.60345 | 3024 ft | 158 kts | 126° |
| 2026-04-26 00:14 | 25.95860 | -80.59386 | 3028 ft | 160 kts | 127° |
| 2026-04-26 00:14 | 25.95161 | -80.58421 | 3027 ft | 161 kts | 127° |
| 2026-04-26 00:14 | 25.94456 | -80.57456 | 3024 ft | 161 kts | 127° |
| 2026-04-26 00:14 | 25.93749 | -80.56493 | 3018 ft | 160 kts | 127° |
| 2026-04-26 00:15 | 25.93043 | -80.55538 | 3014 ft | 160 kts | 128° |
| 2026-04-26 00:15 | 25.92374 | -80.54559 | 3010 ft | 158 kts | 120° |
| 2026-04-26 00:15 | 25.91832 | -80.53507 | 3018 ft | 157 kts | 118° |
| 2026-04-26 00:15 | 25.91302 | -80.52456 | 3016 ft | 155 kts | 118° |
| 2026-04-26 00:16 | 25.90770 | -80.51416 | 3012 ft | 154 kts | 118° |
| 2026-04-26 00:16 | 25.90243 | -80.50385 | 3012 ft | 154 kts | 118° |
| 2026-04-26 00:16 | 25.89715 | -80.49351 | 3025 ft | 154 kts | 118° |
| 2026-04-26 00:16 | 25.89186 | -80.48316 | 3026 ft | 155 kts | 118° |
| 2026-04-26 00:17 | 25.88646 | -80.47267 | 3047 ft | 160 kts | 118° |
| 2026-04-26 00:17 | 25.88094 | -80.46184 | 3045 ft | 166 kts | 118° |
| 2026-04-26 00:17 | 25.87523 | -80.45067 | 3025 ft | 166 kts | 118° |
| 2026-04-26 00:17 | 25.86946 | -80.43941 | 2827 ft | 168 kts | 118° |
| 2026-04-26 00:18 | 25.86374 | -80.42823 | 2601 ft | 165 kts | 118° |
| 2026-04-26 00:18 | 25.85818 | -80.41738 | 2385 ft | 159 kts | 118° |
| 2026-04-26 00:18 | 25.85291 | -80.40706 | 2182 ft | 148 kts | 118° |
| 2026-04-26 00:18 | 25.84815 | -80.39776 | 1995 ft | 133 kts | 118° |
| 2026-04-26 00:19 | 25.84378 | -80.38916 | 1843 ft | 127 kts | 118° |
| 2026-04-26 00:19 | 25.83938 | -80.38059 | 1670 ft | 128 kts | 118° |
| 2026-04-26 00:19 | 25.83498 | -80.37201 | 1479 ft | 128 kts | 118° |
| 2026-04-26 00:19 | 25.83054 | -80.36352 | 1322 ft | 128 kts | 121° |
| 2026-04-26 00:20 | 25.82612 | -80.35497 | 1194 ft | 127 kts | 119° |
| 2026-04-26 00:20 | 25.82180 | -80.34648 | 1079 ft | 131 kts | 119° |
| 2026-04-26 00:20 | 25.81726 | -80.33757 | 885 ft | 132 kts | 119° |
| 2026-04-26 00:20 | 25.81290 | -80.32880 | 702 ft | 127 kts | 118° |
| 2026-04-26 00:21 | 25.80860 | -80.32031 | 491 ft | 126 kts | 120° |
| 2026-04-26 00:21 | 25.80420 | -80.31187 | 291 ft | 127 kts | 119° |
| 2026-04-26 00:21 | 25.79987 | -80.30345 | 71 ft | 124 kts | 118° |
| 2026-04-26 00:21 | 25.79584 | -80.29557 | 16 ft | 106 kts | 123° |
| 2026-04-26 00:22 | 25.79253 | -80.28914 | 12 ft | 70 kts | 120° |
| 2026-04-26 00:22 | 25.79114 | -80.28615 | 15 ft | 32 kts | 111° |
| 2026-04-26 00:22 | 25.79112 | -80.28469 | 14 ft | 14 kts | 64° |
| 2026-04-26 00:22 | 25.79152 | -80.28420 | 15 ft | 5 kts | 37° |
| 2026-04-26 00:23 | 25.79169 | -80.28405 | 14 ft | 0 kts | 41° |
| 2026-04-26 00:23 | 25.79170 | -80.28403 | 14 ft | 0 kts | 54° |
| 2026-04-26 00:23 | 25.79170 | -80.28394 | 14 ft | 3 kts | 84° |
| 2026-04-26 00:23 | 25.79159 | -80.28355 | 14 ft | 7 kts | 115° |
| 2026-04-26 00:24 | 25.79136 | -80.28308 | 15 ft | 7 kts | 119° |
| 2026-04-26 00:24 | 25.79111 | -80.28267 | 16 ft | 6 kts | 127° |
| 2026-04-26 00:24 | 25.79088 | -80.28225 | 15 ft | 7 kts | 119° |
| 2026-04-26 00:24 | 25.79060 | -80.28171 | 15 ft | 8 kts | 119° |
| 2026-04-26 00:25 | 25.79052 | -80.28122 | 15 ft | 4 kts | 82° |
| 2026-04-26 00:25 | 25.79051 | -80.28092 | 14 ft | 4 kts | 99° |
| 2026-04-26 00:25 | 25.79045 | -80.28068 | 14 ft | 3 kts | 108° |
| 2026-04-26 00:25 | 25.79043 | -80.28048 | 14 ft | 3 kts | 84° |
| 2026-04-26 00:26 | 25.79055 | -80.28016 | 14 ft | 4 kts | 63° |
| 2026-04-26 00:26 | 25.79067 | -80.27990 | 15 ft | 2 kts | 63° |
| 2026-04-26 00:26 | 25.79069 | -80.27986 | 14 ft | 0 kts | 64° |